Lincoln, Alabama
Current Conditions -  °F | °C
As of 4:15 AM on Thursday 23 Oct 2014 (Local Time) from KASN Reporting Station
Clear Clear  
Wind Chill: 43°   Ceiling: Unl
Heat Index: 43°   Visibility: 10mi
Dew Point: 40°   Wind: 3mph
Humidity: 90%   Direction: 30°NNE
Pressure: 30.13"   Gusts: NA
Location:  33.61°N, 86.12°W
Report Text: KASN 230915Z AUTO 03003KT 10SM CLR 06/05 A3013 RMK AO2 T00620047
Loading
Personal Weather Stations






























Interactive Weather Map
Tropical Storm Tracking
New forecast layout! Learn more

10-Day Weather Forecast

Advertisements
Track Severe Weather on mobile